Time;durP1;ratioP1;P1;durP2;ratioP2;P2;SDS_P1;SDS_P2;PMS_P1;PMS_P2;Temp;Humidity;BMP_temperature;BMP_pressure;BME280_temperature;BME280_humidity;BME280_pressure;Samples;Min_cycle;Max_cycle;Signal;HPM_P1;HPM_P2
2023/04/06 00:01:17;;;;;;;12.98;11.77;;;5.30;1.00;;;;;;4906820;29;20234;-80
2023/04/06 00:03:46;;;;;;;12.75;11.48;;;5.30;1.00;;;;;;4915323;29;20722;-80
2023/04/06 00:06:13;;;;;;;12.68;11.50;;;5.30;1.00;;;;;;4916650;29;21092;-80
2023/04/06 00:08:41;;;;;;;12.52;11.52;;;5.20;1.00;;;;;;4912202;29;20902;-78
2023/04/06 00:11:08;;;;;;;14.27;13.00;;;5.30;1.00;;;;;;4907720;29;20677;-79
2023/04/06 00:13:36;;;;;;;12.30;11.20;;;5.30;1.00;;;;;;4902696;29;20245;-78
2023/04/06 00:16:05;;;;;;;13.35;12.25;;;5.20;1.00;;;;;;4919466;29;20230;-80
2023/04/06 00:18:32;;;;;;;13.10;11.88;;;5.20;1.00;;;;;;4915766;29;20231;-78
2023/04/06 00:21:00;;;;;;;12.93;11.63;;;5.20;1.00;;;;;;4905419;29;20238;-79
2023/04/06 00:23:28;;;;;;;13.05;11.82;;;5.20;1.00;;;;;;4913442;29;22331;-79
2023/04/06 00:25:56;;;;;;;14.68;12.15;;;5.20;1.00;;;;;;4914063;29;20238;-79
2023/04/06 00:28:25;;;;;;;13.23;12.00;;;5.20;1.00;;;;;;4914693;29;20607;-79
2023/04/06 00:30:55;;;;;;;13.10;11.90;;;5.10;1.00;;;;;;4920295;29;20245;-79
2023/04/06 00:33:22;;;;;;;14.63;13.32;;;5.00;1.00;;;;;;4916853;29;20246;-80
2023/04/06 00:35:49;;;;;;;13.55;12.45;;;5.10;1.00;;;;;;4914615;29;20246;-81
2023/04/06 00:38:20;;;;;;;13.20;12.00;;;5.10;1.00;;;;;;4909566;29;20269;-80
2023/04/06 00:40:47;;;;;;;13.20;12.15;;;5.10;1.00;;;;;;4920740;29;20254;-79
2023/04/06 00:43:17;;;;;;;12.75;11.75;;;5.10;1.00;;;;;;4920181;29;21941;-79
2023/04/06 00:45:45;;;;;;;13.18;11.98;;;5.10;1.00;;;;;;4918528;29;20630;-80
2023/04/06 00:48:13;;;;;;;11.90;10.70;;;5.00;1.00;;;;;;4919103;29;20309;-80
2023/04/06 00:50:40;;;;;;;11.55;10.65;;;5.10;1.00;;;;;;4910344;29;20295;-79
2023/04/06 00:53:07;;;;;;;12.90;11.80;;;5.10;1.00;;;;;;4916588;29;20265;-79
2023/04/06 00:55:40;;;;;;;12.30;11.10;;;5.00;1.00;;;;;;4918636;29;20253;-78
2023/04/06 00:58:07;;;;;;;13.68;11.07;;;5.00;1.00;;;;;;4918318;29;21030;-79
2023/04/06 01:00:34;;;;;;;11.02;10.13;;;5.00;1.00;;;;;;4914152;29;21519;-79
2023/04/06 01:05:40;;;;;;;11.80;10.80;;;5.00;1.00;;;;;;4100572;26;20325;-82
2023/04/06 01:08:07;;;;;;;12.15;11.05;;;5.00;1.00;;;;;;4902121;29;20307;-81
2023/04/06 01:10:37;;;;;;;12.05;10.85;;;4.90;1.00;;;;;;4896903;29;20243;-81
2023/04/06 01:13:08;;;;;;;12.90;11.70;;;4.90;1.00;;;;;;4882009;29;20223;-82
2023/04/06 01:15:38;;;;;;;13.10;11.75;;;4.90;1.00;;;;;;4907957;29;20345;-81
2023/04/06 01:18:06;;;;;;;12.68;11.45;;;4.80;1.00;;;;;;4897753;29;20264;-83
2023/04/06 01:20:33;;;;;;;13.30;11.98;;;4.80;1.00;;;;;;4891431;29;20252;-80
2023/04/06 01:23:03;;;;;;;12.07;10.40;;;4.80;1.00;;;;;;4900244;29;20247;-80
2023/04/06 01:25:30;;;;;;;11.05;9.93;;;4.80;1.00;;;;;;4877218;29;20250;-81
2023/04/06 01:27:57;;;;;;;11.77;10.35;;;4.80;1.00;;;;;;4891662;29;20227;-82
2023/04/06 01:30:25;;;;;;;11.93;10.88;;;4.80;1.00;;;;;;4900787;29;20303;-82
2023/04/06 01:32:52;;;;;;;11.43;10.32;;;4.70;1.00;;;;;;4898977;29;20291;-81
2023/04/06 01:35:20;;;;;;;12.15;11.02;;;4.60;1.00;;;;;;4894936;29;20237;-81
2023/04/06 01:37:47;;;;;;;12.23;11.02;;;4.60;1.00;;;;;;4901244;29;20283;-82
2023/04/06 01:40:17;;;;;;;11.50;10.32;;;4.60;1.00;;;;;;4903397;29;20245;-81
2023/04/06 01:42:44;;;;;;;10.98;9.98;;;4.70;1.00;;;;;;4898407;29;20231;-82
2023/04/06 01:45:11;;;;;;;12.82;11.63;;;4.60;1.00;;;;;;4898786;29;20251;-81
2023/04/06 01:47:41;;;;;;;12.35;11.23;;;4.60;1.00;;;;;;4898173;29;20238;-81
2023/04/06 01:50:09;;;;;;;12.73;11.52;;;4.60;1.00;;;;;;4900103;29;20246;-83
2023/04/06 01:52:36;;;;;;;13.85;12.45;;;4.60;1.00;;;;;;4905546;29;20242;-82
2023/04/06 01:55:04;;;;;;;12.60;11.40;;;4.50;1.00;;;;;;4903987;29;20243;-83
2023/04/06 01:57:33;;;;;;;13.45;12.15;;;4.50;1.00;;;;;;4906818;29;20238;-83
2023/04/06 02:00:00;;;;;;;12.50;11.20;;;4.60;1.00;;;;;;4902798;29;20241;-83
2023/04/06 02:02:27;;;;;;;12.27;11.07;;;4.50;1.00;;;;;;4901311;29;20249;-81
2023/04/06 02:04:54;;;;;;;12.55;11.35;;;4.50;1.00;;;;;;4901703;29;20242;-81
2023/04/06 02:07:21;;;;;;;12.73;11.27;;;4.50;1.00;;;;;;4903774;29;20327;-83
2023/04/06 02:09:49;;;;;;;12.00;11.00;;;4.40;1.00;;;;;;4896366;29;20249;-81
2023/04/06 02:12:16;;;;;;;13.27;12.10;;;4.40;1.00;;;;;;4892620;29;20306;-82
2023/04/06 02:14:45;;;;;;;12.88;11.63;;;4.50;1.00;;;;;;4903599;28;20243;-82
2023/04/06 02:17:12;;;;;;;16.45;12.73;;;4.40;1.00;;;;;;4900008;29;20239;-84
2023/04/06 02:19:43;;;;;;;13.15;12.05;;;4.40;1.00;;;;;;4902430;28;20334;-85
2023/04/06 02:22:11;;;;;;;12.55;11.50;;;4.40;1.00;;;;;;4899531;29;20249;-82
2023/04/06 02:24:38;;;;;;;13.52;12.23;;;4.40;1.00;;;;;;4902425;29;21098;-83
2023/04/06 02:27:05;;;;;;;12.80;11.65;;;4.40;1.00;;;;;;4901216;28;20234;-84
2023/04/06 02:29:33;;;;;;;12.75;11.50;;;4.30;1.00;;;;;;4906340;29;20239;-83
2023/04/06 02:32:01;;;;;;;13.40;12.00;;;4.30;1.00;;;;;;4899664;29;20742;-83
2023/04/06 02:34:29;;;;;;;13.73;12.43;;;4.30;1.00;;;;;;4897468;29;20981;-83
2023/04/06 02:36:56;;;;;;;14.27;12.88;;;4.30;1.00;;;;;;4903125;29;20297;-82
2023/04/06 02:39:24;;;;;;;14.77;13.30;;;4.20;1.00;;;;;;4906457;29;20302;-83
2023/04/06 02:41:51;;;;;;;14.40;12.90;;;4.20;1.00;;;;;;4902395;29;20247;-82
2023/04/06 02:44:18;;;;;;;13.98;12.52;;;4.20;1.00;;;;;;4908708;29;20289;-82
2023/04/06 02:46:45;;;;;;;13.82;12.25;;;4.10;1.00;;;;;;4905449;29;20246;-82
2023/04/06 02:49:14;;;;;;;13.20;11.90;;;4.00;1.00;;;;;;4911859;29;20250;-84
2023/04/06 02:51:41;;;;;;;12.73;11.52;;;4.00;1.00;;;;;;4899200;29;20253;-82
2023/04/06 02:54:11;;;;;;;17.27;13.00;;;3.90;1.00;;;;;;4902487;29;20424;-82
2023/04/06 02:56:38;;;;;;;13.93;12.38;;;3.80;1.00;;;;;;4906234;29;20254;-82
2023/04/06 02:59:06;;;;;;;12.52;11.32;;;3.80;1.00;;;;;;4906816;29;20313;-83
2023/04/06 03:01:33;;;;;;;13.30;12.10;;;3.80;1.00;;;;;;4902240;29;20239;-83
2023/04/06 03:04:00;;;;;;;14.18;12.93;;;3.70;1.00;;;;;;4908391;29;21158;-82
2023/04/06 03:06:30;;;;;;;12.30;10.98;;;3.60;1.00;;;;;;4903642;29;20251;-82
2023/04/06 03:08:57;;;;;;;12.52;11.43;;;3.60;1.00;;;;;;4905555;29;20227;-82
2023/04/06 03:11:26;;;;;;;15.23;13.77;;;3.60;1.00;;;;;;4903379;29;20248;-81
2023/04/06 03:13:53;;;;;;;12.05;10.93;;;3.60;1.00;;;;;;4887085;29;20725;-82
2023/04/06 03:16:20;;;;;;;11.80;10.77;;;3.60;1.00;;;;;;4898514;29;20214;-81
2023/04/06 03:18:48;;;;;;;47.00;13.75;;;3.60;1.00;;;;;;4898760;29;20304;-82
2023/04/06 03:21:16;;;;;;;13.90;12.40;;;3.40;1.00;;;;;;4906054;29;20298;-83
2023/04/06 03:23:45;;;;;;;12.65;11.52;;;3.40;1.00;;;;;;4901697;29;20227;-82
2023/04/06 03:26:12;;;;;;;15.77;11.93;;;3.40;1.00;;;;;;4885745;29;20746;-83
2023/04/06 03:28:39;;;;;;;14.05;11.65;;;3.40;1.00;;;;;;4903672;29;20720;-83
2023/04/06 03:31:06;;;;;;;16.25;12.15;;;3.30;1.00;;;;;;4904315;29;20239;-82
2023/04/06 03:33:33;;;;;;;12.82;11.63;;;3.30;1.00;;;;;;4899666;29;21133;-82
2023/04/06 03:36:01;;;;;;;13.63;12.23;;;3.20;1.00;;;;;;4907180;28;20270;-82
2023/04/06 03:38:28;;;;;;;13.38;11.95;;;3.20;1.00;;;;;;4903295;28;21016;-83
2023/04/06 03:40:57;;;;;;;15.75;12.90;;;3.10;1.00;;;;;;4903992;28;21010;-81
2023/04/06 03:43:25;;;;;;;14.65;13.20;;;3.00;1.00;;;;;;4903602;29;20239;-82
2023/04/06 03:45:52;;;;;;;12.88;11.48;;;3.00;1.00;;;;;;4904504;29;20226;-82
2023/04/06 03:48:19;;;;;;;12.82;11.13;;;3.00;1.00;;;;;;4901481;28;20246;-83
2023/04/06 03:50:48;;;;;;;14.45;11.68;;;3.00;1.00;;;;;;4897837;29;20226;-82
2023/04/06 03:53:15;;;;;;;12.80;11.50;;;2.90;1.00;;;;;;4904276;28;20231;-83
2023/04/06 03:55:42;;;;;;;11.95;10.77;;;2.90;1.00;;;;;;4910167;29;20270;-82
2023/04/06 03:58:11;;;;;;;12.27;11.02;;;2.80;1.00;;;;;;4906651;29;20306;-82
2023/04/06 04:00:39;;;;;;;13.40;12.00;;;2.80;1.00;;;;;;4881687;29;20242;-82
2023/04/06 04:03:08;;;;;;;16.95;11.27;;;2.70;1.00;;;;;;4903000;29;20461;-83
2023/04/06 04:05:35;;;;;;;12.25;10.00;;;2.70;1.00;;;;;;4901969;29;20259;-82
2023/04/06 04:08:03;;;;;;;13.27;10.88;;;2.70;1.00;;;;;;4904949;29;21193;-82
2023/04/06 04:10:31;;;;;;;13.60;10.65;;;2.60;1.00;;;;;;4881994;29;20928;-82
2023/04/06 04:12:58;;;;;;;12.80;11.40;;;2.60;1.00;;;;;;4896769;29;20338;-81
2023/04/06 04:15:27;;;;;;;15.68;9.90;;;2.50;1.00;;;;;;4903887;29;20235;-82
2023/04/06 04:17:54;;;;;;;12.63;10.25;;;2.40;1.00;;;;;;4908725;28;20249;-81
2023/04/06 04:20:24;;;;;;;11.68;9.70;;;2.40;1.00;;;;;;4898296;29;21101;-82
2023/04/06 04:22:54;;;;;;;17.05;15.10;;;2.40;1.00;;;;;;4899960;29;20243;-82
2023/04/06 04:25:22;;;;;;;12.82;10.77;;;2.40;1.00;;;;;;4898469;29;20242;-82
2023/04/06 04:27:49;;;;;;;10.20;9.30;;;2.30;1.00;;;;;;4904961;28;21145;-82
2023/04/06 04:30:17;;;;;;;13.23;10.52;;;2.30;1.00;;;;;;4903877;29;20313;-81
2023/04/06 04:32:46;;;;;;;13.10;11.63;;;2.30;1.00;;;;;;4906394;28;20266;-82
2023/04/06 04:35:14;;;;;;;11.52;10.20;;;2.20;1.00;;;;;;4906653;29;20957;-81
2023/04/06 04:37:42;;;;;;;10.73;9.68;;;2.20;1.00;;;;;;4907835;28;20662;-82
2023/04/06 04:40:10;;;;;;;21.27;16.70;;;2.20;1.00;;;;;;4908166;28;20458;-83
2023/04/06 04:42:38;;;;;;;11.68;9.48;;;2.20;1.00;;;;;;4882060;29;20245;-82
2023/04/06 04:45:07;;;;;;;12.02;10.00;;;2.20;1.00;;;;;;4906489;29;20321;-83
2023/04/06 04:47:34;;;;;;;17.40;11.43;;;2.20;1.00;;;;;;4900490;28;20226;-82
2023/04/06 04:50:06;;;;;;;13.80;10.60;;;2.20;1.00;;;;;;4885408;29;20238;-82
2023/04/06 04:52:33;;;;;;;16.23;13.45;;;2.20;1.00;;;;;;4904549;29;20246;-83
2023/04/06 04:55:01;;;;;;;16.52;11.13;;;2.20;1.00;;;;;;4907007;29;20273;-81
2023/04/06 04:57:28;;;;;;;23.73;15.13;;;2.20;1.00;;;;;;4908540;29;20341;-82
2023/04/06 04:59:57;;;;;;;12.57;11.05;;;2.20;1.00;;;;;;4906736;29;20267;-85
2023/04/06 05:02:24;;;;;;;11.77;9.80;;;2.30;1.00;;;;;;4906639;29;20258;-83
2023/04/06 05:05:00;;;;;;;15.45;11.23;;;2.30;1.00;;;;;;4915192;29;20241;-84
2023/04/06 05:07:35;;;;;;;11.63;9.80;;;2.30;1.00;;;;;;4901997;28;20238;-80
2023/04/06 05:10:02;;;;;;;12.85;10.57;;;2.30;1.00;;;;;;4907516;29;20242;-82
2023/04/06 05:12:32;;;;;;;13.88;11.30;;;2.40;1.00;;;;;;4901744;28;21145;-83
2023/04/06 05:15:01;;;;;;;13.45;11.02;;;2.30;1.00;;;;;;4897298;29;20255;-82
2023/04/06 05:17:28;;;;;;;12.20;10.90;;;2.30;1.00;;;;;;4900796;29;20265;-83
2023/04/06 05:19:57;;;;;;;14.63;9.80;;;2.30;1.00;;;;;;4902768;29;20239;-82
2023/04/06 05:22:24;;;;;;;15.55;12.52;;;2.40;1.00;;;;;;4903125;28;20245;-82
2023/04/06 05:24:59;;;;;;;12.38;10.50;;;2.40;1.00;;;;;;4890437;29;20266;-82
2023/04/06 05:27:31;;;;;;;16.15;11.68;;;2.40;1.00;;;;;;4903036;29;20284;-82
2023/04/06 05:29:58;;;;;;;15.15;10.93;;;2.50;1.00;;;;;;4907411;28;20692;-83
2023/04/06 05:32:25;;;;;;;12.02;10.45;;;2.60;1.00;;;;;;4900138;28;20338;-83
2023/04/06 05:34:53;;;;;;;14.57;10.45;;;2.60;1.00;;;;;;4901428;29;20890;-82
2023/04/06 05:37:21;;;;;;;14.15;11.40;;;2.70;1.00;;;;;;4901507;28;20249;-82
2023/04/06 05:39:50;;;;;;;13.05;10.55;;;2.80;1.00;;;;;;4906226;29;20242;-81
2023/04/06 05:42:21;;;;;;;12.40;9.88;;;2.80;1.00;;;;;;4901070;29;20239;-82
2023/04/06 05:44:49;;;;;;;19.23;17.15;;;2.80;1.00;;;;;;4895970;29;20231;-83
2023/04/06 05:47:16;;;;;;;11.88;10.73;;;2.90;1.00;;;;;;4903992;28;20246;-82
2023/04/06 05:49:44;;;;;;;12.95;11.63;;;3.00;1.00;;;;;;4904169;29;20242;-82
2023/04/06 05:52:11;;;;;;;10.98;9.07;;;3.10;1.00;;;;;;4900015;28;20222;-80
2023/04/06 05:54:42;;;;;;;12.15;11.02;;;3.20;1.00;;;;;;4908244;29;20237;-82
2023/04/06 05:57:12;;;;;;;12.13;9.77;;;3.20;1.00;;;;;;4896236;29;20250;-82
2023/04/06 05:59:40;;;;;;;12.20;9.77;;;3.30;1.00;;;;;;4884841;29;20274;-82
2023/04/06 06:02:08;;;;;;;11.15;9.60;;;3.40;1.00;;;;;;4897950;29;20251;-81
2023/04/06 06:04:36;;;;;;;10.10;9.20;;;3.40;1.00;;;;;;4899548;28;20249;-86
2023/04/06 06:07:05;;;;;;;15.50;10.63;;;3.60;1.00;;;;;;4897985;28;20697;-86
2023/04/06 06:09:33;;;;;;;10.98;9.77;;;3.60;1.00;;;;;;4906282;28;20338;-86
2023/04/06 06:12:03;;;;;;;10.32;9.43;;;3.70;1.00;;;;;;4908402;28;20253;-85
2023/04/06 06:14:30;;;;;;;9.80;8.90;;;3.80;1.00;;;;;;4905063;28;20959;-85
2023/04/06 06:17:00;;;;;;;10.32;9.32;;;3.60;1.00;;;;;;4903222;28;20277;-87
2023/04/06 06:19:30;;;;;;;14.73;13.23;;;3.60;1.00;;;;;;4911835;28;20333;-88
2023/04/06 06:22:02;;;;;;;12.02;10.00;;;3.70;1.00;;;;;;4901125;28;20262;-87
2023/04/06 06:24:31;;;;;;;12.30;10.45;;;3.80;1.00;;;;;;4907687;29;20238;-84
2023/04/06 06:27:00;;;;;;;12.80;10.63;;;3.80;1.00;;;;;;4897007;28;20255;-87
2023/04/06 06:29:33;;;;;;;11.60;10.52;;;4.00;1.00;;;;;;4892422;29;21015;-86
2023/04/06 06:32:01;;;;;;;12.90;10.52;;;4.10;1.00;;;;;;4898723;29;20245;-87
2023/04/06 06:34:28;;;;;;;14.65;10.48;;;4.10;1.00;;;;;;4896086;28;20251;-84
2023/04/06 06:36:56;;;;;;;14.32;10.45;;;4.30;1.00;;;;;;4906316;28;20251;-82
2023/04/06 06:39:24;;;;;;;13.35;9.48;;;4.30;1.00;;;;;;4904462;28;20805;-83
2023/04/06 06:41:52;;;;;;;13.00;10.15;;;4.40;1.00;;;;;;4894236;29;20231;-84
2023/04/06 06:44:21;;;;;;;11.23;9.82;;;4.40;1.00;;;;;;4906017;29;20298;-82
2023/04/06 06:46:48;;;;;;;12.60;9.90;;;4.50;1.00;;;;;;4899638;29;20247;-83
2023/04/06 06:49:17;;;;;;;11.32;10.00;;;4.50;1.00;;;;;;4887957;29;20238;-78
2023/04/06 06:51:44;;;;;;;14.50;11.10;;;4.60;1.00;;;;;;4892480;29;20238;-77
2023/04/06 06:54:14;;;;;;;13.68;10.02;;;4.80;1.00;;;;;;4891487;28;20246;-78
2023/04/06 06:56:44;;;;;;;11.07;9.57;;;5.00;1.00;;;;;;4890016;28;21059;-81
2023/04/06 06:59:12;;;;;;;10.43;9.32;;;5.10;1.00;;;;;;4895197;29;20681;-79
2023/04/06 07:01:42;;;;;;;10.50;8.75;;;5.30;1.00;;;;;;4882933;29;20385;-83
2023/04/06 07:04:10;;;;;;;9.25;8.35;;;5.50;1.00;;;;;;4883015;29;20384;-78
2023/04/06 07:06:39;;;;;;;9.60;8.63;;;5.70;1.00;;;;;;4888521;29;20261;-78
2023/04/06 07:09:09;;;;;;;10.95;8.40;;;5.90;1.00;;;;;;4889535;29;20255;-81
2023/04/06 07:11:37;;;;;;;10.13;8.40;;;6.00;1.00;;;;;;4896628;29;20247;-84
2023/04/06 07:14:07;;;;;;;11.05;8.43;;;6.10;1.00;;;;;;4894123;29;20245;-81
2023/04/06 07:16:37;;;;;;;10.07;7.95;;;6.20;1.00;;;;;;4896490;29;20240;-82
2023/04/06 07:19:04;;;;;;;9.93;7.45;;;6.40;1.00;;;;;;4892183;29;20253;-78
2023/04/06 07:21:34;;;;;;;11.30;7.93;;;6.60;1.00;;;;;;4894079;29;20318;-85
2023/04/06 07:24:02;;;;;;;7.53;6.83;;;6.70;1.00;;;;;;4891988;29;20535;-82
2023/04/06 07:26:30;;;;;;;8.73;6.93;;;6.80;1.00;;;;;;4895693;29;20494;-81
2023/04/06 07:28:58;;;;;;;7.80;6.90;;;6.80;1.00;;;;;;4890876;28;20491;-83
2023/04/06 07:31:25;;;;;;;9.00;8.10;;;6.90;1.00;;;;;;4898661;29;22282;-80
2023/04/06 07:33:52;;;;;;;8.27;7.47;;;7.20;1.00;;;;;;4897713;29;20464;-80
2023/04/06 07:36:21;;;;;;;12.97;10.80;;;7.40;1.00;;;;;;4896890;29;21327;-81
2023/04/06 07:38:50;;;;;;;13.23;11.00;;;7.50;1.00;;;;;;4895867;29;20474;-81
2023/04/06 07:41:21;;;;;;;18.37;14.30;;;7.70;1.00;;;;;;4891467;29;20499;-80
2023/04/06 07:43:49;;;;;;;19.87;17.77;;;8.00;1.00;;;;;;4897466;29;20479;-81
2023/04/06 07:46:19;;;;;;;18.80;15.17;;;8.10;1.00;;;;;;4893438;29;21002;-80
2023/04/06 07:48:47;;;;;;;13.90;12.50;;;8.20;1.00;;;;;;4896639;29;20468;-81
2023/04/06 07:51:16;;;;;;;14.73;10.07;;;8.40;1.00;;;;;;4893203;29;20434;-81
2023/04/06 07:53:46;;;;;;;12.27;9.60;;;8.40;1.00;;;;;;4899426;29;20490;-80
2023/04/06 07:56:16;;;;;;;9.17;7.83;;;8.40;1.00;;;;;;4898410;29;20475;-80
2023/04/06 07:58:44;;;;;;;9.40;6.10;;;8.40;1.00;;;;;;4888938;29;20487;-80
2023/04/06 08:01:12;;;;;;;7.17;6.47;;;8.60;1.00;;;;;;4896035;29;20447;-82
2023/04/06 08:03:40;;;;;;;7.60;6.87;;;8.70;1.00;;;;;;4891821;29;20478;-83
2023/04/06 08:06:08;;;;;;;6.47;5.63;;;8.70;1.00;;;;;;4895169;29;21014;-82
2023/04/06 08:08:40;;;;;;;7.93;6.07;;;8.70;1.00;;;;;;4902283;28;20476;-80
2023/04/06 08:11:08;;;;;;;5.87;5.27;;;8.90;1.00;;;;;;4896889;29;20510;-80
2023/04/06 08:13:36;;;;;;;5.60;4.70;;;8.90;1.00;;;;;;4898374;29;20529;-82
2023/04/06 08:16:06;;;;;;;5.50;4.40;;;8.70;1.00;;;;;;4904136;29;20479;-83
2023/04/06 08:18:35;;;;;;;5.73;4.77;;;8.70;1.00;;;;;;4876733;29;20483;-80
2023/04/06 08:21:05;;;;;;;4.83;4.17;;;8.90;1.00;;;;;;4909097;28;20453;-90
2023/04/06 08:23:32;;;;;;;5.30;4.80;;;9.00;1.00;;;;;;4903879;28;20498;-83
2023/04/06 08:26:00;;;;;;;4.90;3.97;;;9.10;1.00;;;;;;4899981;29;21010;-81
2023/04/06 08:28:28;;;;;;;8.27;4.13;;;9.20;1.00;;;;;;4897381;29;20456;-82
2023/04/06 08:30:55;;;;;;;4.87;4.17;;;9.40;1.00;;;;;;4897494;28;20479;-82
2023/04/06 08:33:24;;;;;;;6.47;4.67;;;9.60;1.00;;;;;;4901253;29;20969;-82
2023/04/06 08:35:52;;;;;;;4.97;3.30;;;9.70;1.00;;;;;;4894981;29;20472;-84
2023/04/06 08:38:22;;;;;;;5.90;4.00;;;9.80;1.00;;;;;;4896956;29;20505;-83
2023/04/06 08:40:51;;;;;;;4.30;3.90;;;9.80;1.00;;;;;;4878943;29;20473;-81
2023/04/06 08:43:23;;;;;;;6.80;5.03;;;9.80;1.00;;;;;;4898958;28;20439;-84
2023/04/06 08:45:58;;;;;;;5.63;4.57;;;9.80;1.00;;;;;;4899376;29;20508;-88
2023/04/06 08:48:28;;;;;;;4.03;3.20;;;10.00;1.00;;;;;;4900321;29;21757;-82
2023/04/06 08:50:56;;;;;;;3.97;3.60;;;9.80;1.00;;;;;;4897142;29;20432;-82
2023/04/06 08:53:27;;;;;;;4.47;3.40;;;9.90;1.00;;;;;;4886631;29;20429;-86
2023/04/06 08:56:03;;;;;;;4.80;3.67;;;10.00;1.00;;;;;;4915596;28;20426;-87
2023/04/06 08:58:52;;;;;;;3.93;3.60;;;10.00;1.00;;;;;;4880450;28;20426;-86
2023/04/06 09:01:33;;;;;;;3.80;3.20;;;10.10;1.00;;;;;;4904727;29;20459;-85
2023/04/06 09:04:10;;;;;;;5.80;4.00;;;10.10;1.00;;;;;;4908644;29;20454;-85
2023/04/06 09:06:38;;;;;;;5.10;3.73;;;10.30;1.00;;;;;;4888756;29;20468;-83
2023/04/06 09:09:08;;;;;;;8.50;4.10;;;10.50;1.00;;;;;;4893298;29;20456;-83
2023/04/06 09:11:47;;;;;;;3.80;3.40;;;10.60;1.00;;;;;;4899912;29;20467;-82
2023/04/06 09:14:14;;;;;;;3.90;3.60;;;10.70;1.00;;;;;;4899691;29;20495;-83
2023/04/06 09:16:44;;;;;;;3.80;3.50;;;10.70;1.00;;;;;;4897910;29;20960;-82
2023/04/06 09:19:14;;;;;;;4.83;4.10;;;10.90;1.00;;;;;;4884206;29;20439;-82
2023/04/06 09:21:41;;;;;;;3.40;3.10;;;11.00;1.00;;;;;;4897869;29;20435;-83
2023/04/06 09:24:10;;;;;;;5.20;3.10;;;11.40;1.00;;;;;;4897183;28;20439;-85
2023/04/06 09:26:48;;;;;;;4.23;3.60;;;12.30;1.00;;;;;;4902388;29;20549;-84
2023/04/06 09:29:25;;;;;;;3.67;3.37;;;14.00;1.00;;;;;;4903339;29;20889;-82
2023/04/06 09:31:53;;;;;;;3.77;3.10;;;15.80;1.00;;;;;;4906490;28;20475;-83
2023/04/06 09:34:27;;;;;;;3.60;3.17;;;17.50;1.00;;;;;;4905286;29;20437;-87
2023/04/06 09:36:55;;;;;;;4.10;3.40;;;18.20;1.00;;;;;;4902726;29;20454;-85
2023/04/06 09:39:24;;;;;;;3.50;3.20;;;18.50;1.00;;;;;;4888980;29;20493;-85
2023/04/06 09:41:53;;;;;;;3.53;3.23;;;18.80;1.00;;;;;;4903458;29;20488;-85
2023/04/06 09:44:21;;;;;;;3.50;3.20;;;19.10;1.00;;;;;;4906114;28;20482;-85
2023/04/06 09:46:50;;;;;;;3.93;2.60;;;19.60;1.00;;;;;;4897195;29;20468;-83
2023/04/06 09:49:22;;;;;;;3.20;2.53;;;20.50;1.00;;;;;;4886626;29;21098;-87
2023/04/06 09:52:07;;;;;;;3.80;3.07;;;20.80;1.00;;;;;;4901944;29;20979;-85
2023/04/06 09:54:36;;;;;;;3.60;3.20;;;21.60;1.00;;;;;;4892322;28;20424;-83
2023/04/06 09:57:12;;;;;;;3.80;3.50;;;21.80;1.00;;;;;;4909707;29;20432;-88
2023/04/06 09:59:49;;;;;;;3.90;2.97;;;20.50;1.00;;;;;;4911078;29;20450;-88
2023/04/06 10:02:25;;;;;;;3.67;2.90;;;19.60;1.00;;;;;;4914739;29;20473;-86
2023/04/06 10:05:02;;;;;;;3.37;2.83;;;17.90;1.00;;;;;;4916366;28;20427;-84
2023/04/06 10:07:31;;;;;;;3.50;2.90;;;17.60;1.00;;;;;;4917096;28;21187;-87
2023/04/06 10:10:03;;;;;;;2.63;2.43;;;18.80;1.00;;;;;;4912646;28;20423;-86
2023/04/06 10:12:31;;;;;;;2.90;2.70;;;19.90;1.00;;;;;;4909571;29;20432;-85
2023/04/06 10:15:10;;;;;;;3.30;2.70;;;21.30;1.00;;;;;;4913649;28;20600;-88
2023/04/06 10:17:40;;;;;;;4.00;3.03;;;20.70;1.00;;;;;;4914657;29;20516;-85
2023/04/06 10:23:14;;;;;;;2.50;2.30;;;17.40;1.00;;;;;;4913981;28;20440;-87
2023/04/06 10:25:54;;;;;;;2.90;2.60;;;16.50;1.00;;;;;;4910437;28;20468;-87
2023/04/06 10:28:24;;;;;;;3.00;2.60;;;15.90;1.00;;;;;;4904930;29;20657;-86
2023/04/06 10:46:35;;;;;;;4.40;2.03;;;21.90;1.00;;;;;;5365051;23;20427;-89
2023/04/06 10:49:13;;;;;;;2.43;2.23;;;22.40;1.00;;;;;;4930512;29;20461;-89
2023/04/06 10:51:40;;;;;;;2.70;2.20;;;21.30;1.00;;;;;;4927582;29;20460;-88
2023/04/06 10:54:18;;;;;;;3.03;2.70;;;21.20;1.00;;;;;;4931706;28;21165;-86
2023/04/06 10:56:46;;;;;;;3.03;2.50;;;21.20;1.00;;;;;;4923546;28;20532;-90
2023/04/06 10:59:13;;;;;;;6.03;3.20;;;22.60;1.00;;;;;;4927431;29;20630;-89
2023/04/06 11:01:55;;;;;;;3.43;2.80;;;22.50;1.00;;;;;;4928268;29;20457;-87
2023/04/06 11:04:26;;;;;;;2.67;2.40;;;20.80;1.00;;;;;;4925009;28;20460;-84
2023/04/06 11:06:57;;;;;;;2.47;2.27;;;19.10;1.00;;;;;;4930341;28;20430;-87
2023/04/06 11:09:29;;;;;;;3.37;3.07;;;19.50;1.00;;;;;;4930346;28;20455;-88
2023/04/06 11:12:01;;;;;;;3.63;2.60;;;20.40;1.00;;;;;;4934061;28;20422;-87
2023/04/06 11:14:29;;;;;;;3.97;2.30;;;21.30;1.00;;;;;;4929173;28;20431;-90
2023/04/06 11:16:59;;;;;;;5.13;2.50;;;23.00;1.00;;;;;;4926594;29;20429;-84
2023/04/06 11:19:28;;;;;;;3.03;2.30;;;24.70;1.00;;;;;;4912600;29;21027;-83
2023/04/06 11:21:56;;;;;;;3.47;2.43;;;24.60;1.00;;;;;;4915646;29;20432;-84
2023/04/06 11:24:40;;;;;;;2.90;2.60;;;24.70;1.00;;;;;;4911295;28;20556;-85
2023/04/06 11:27:10;;;;;;;3.80;3.40;;;25.60;1.00;;;;;;4931627;29;20424;-84
2023/04/06 11:32:22;;;;;;;3.27;2.97;;;20.10;1.00;;;;;;5074584;23;20443;-83
2023/04/06 11:34:56;;;;;;;4.87;2.83;;;20.40;1.00;;;;;;4903799;29;20532;-86
2023/04/06 11:37:28;;;;;;;5.10;2.93;;;21.50;1.00;;;;;;4922687;28;20432;-87
2023/04/06 11:39:59;;;;;;;3.00;2.60;;;21.70;1.00;;;;;;4921326;29;20747;-87
2023/04/06 11:42:28;;;;;;;2.83;2.63;;;22.10;1.00;;;;;;4919661;28;20495;-84
2023/04/06 11:44:56;;;;;;;3.30;2.93;;;20.30;1.00;;;;;;4914732;29;20469;-83
2023/04/06 11:47:41;;;;;;;5.00;3.63;;;18.80;1.00;;;;;;4920342;29;20449;-84
2023/04/06 11:53:59;;;;;;;4.07;3.20;;;17.90;1.00;;;;;;4918699;29;21008;-84
2023/04/06 11:57:01;;;;;;;;;;;;;;;;;;;;;
2023/04/06 12:02:54;;;;;;;3.73;2.77;;;19.00;1.00;;;;;;4910865;28;20518;-83
2023/04/06 12:05:22;;;;;;;4.30;3.03;;;20.30;1.00;;;;;;4911775;28;20471;-83
2023/04/06 12:07:50;;;;;;;3.50;3.23;;;20.00;1.00;;;;;;4921925;29;20477;-82
2023/04/06 12:10:17;;;;;;;3.20;2.90;;;18.80;1.00;;;;;;4920497;29;20472;-82
2023/04/06 12:12:47;;;;;;;3.70;3.00;;;17.90;1.00;;;;;;4918573;29;20867;-83
2023/04/06 12:15:14;;;;;;;5.57;3.03;;;19.70;1.00;;;;;;4920187;29;21013;-82
2023/04/06 12:17:42;;;;;;;7.40;3.27;;;21.20;1.00;;;;;;4922901;29;20473;-83
2023/04/06 12:20:12;;;;;;;2.97;2.73;;;22.20;1.00;;;;;;4918967;28;20469;-81
2023/04/06 12:22:39;;;;;;;2.90;2.70;;;23.60;1.00;;;;;;4925541;29;20513;-82
2023/04/06 12:25:09;;;;;;;3.83;3.07;;;24.60;1.00;;;;;;4922380;29;20438;-83
2023/04/06 12:27:38;;;;;;;2.97;2.73;;;24.20;1.00;;;;;;4915120;29;20465;-82
2023/04/06 12:30:08;;;;;;;2.20;2.00;;;25.50;1.00;;;;;;4925494;29;20476;-82
2023/04/06 12:32:35;;;;;;;3.90;2.97;;;24.90;1.00;;;;;;4919189;28;20949;-81
2023/04/06 12:35:02;;;;;;;3.33;3.03;;;23.10;1.00;;;;;;4915983;29;20469;-78
2023/04/06 12:37:31;;;;;;;3.30;3.00;;;21.30;1.00;;;;;;4913439;28;20484;-78
2023/04/06 12:39:58;;;;;;;4.33;2.40;;;20.30;1.00;;;;;;4913559;28;20922;-77
2023/04/06 12:42:25;;;;;;;11.77;5.50;;;21.10;1.00;;;;;;4911989;29;20883;-77
2023/04/06 12:44:52;;;;;;;3.33;2.70;;;22.90;1.00;;;;;;4914494;28;20500;-77
2023/04/06 12:47:20;;;;;;;3.30;2.63;;;24.90;1.00;;;;;;4908636;28;20597;-78
2023/04/06 12:49:48;;;;;;;2.97;2.40;;;25.80;1.00;;;;;;4909070;29;20468;-78
2023/04/06 12:52:20;;;;;;;3.10;2.40;;;22.90;1.00;;;;;;4914630;29;21267;-78
2023/04/06 12:54:51;;;;;;;2.90;2.40;;;21.40;1.00;;;;;;4913882;29;20495;-78
2023/04/06 12:57:20;;;;;;;3.07;2.70;;;20.40;1.00;;;;;;4913571;29;20471;-80
2023/04/06 12:59:47;;;;;;;3.53;2.97;;;19.40;1.00;;;;;;4912531;29;20474;-79
2023/04/06 13:02:14;;;;;;;3.83;3.10;;;18.80;1.00;;;;;;4912586;29;20485;-79
2023/04/06 13:04:41;;;;;;;4.27;3.13;;;18.30;1.00;;;;;;4913509;29;20561;-78
2023/04/06 13:07:09;;;;;;;5.40;4.00;;;17.80;1.00;;;;;;4913651;28;20901;-78
2023/04/06 13:09:36;;;;;;;3.30;3.00;;;18.30;1.00;;;;;;4911653;29;20462;-79
2023/04/06 13:12:05;;;;;;;3.40;2.93;;;20.00;1.00;;;;;;4912520;29;20472;-80
2023/04/06 13:14:32;;;;;;;4.13;3.70;;;20.70;1.00;;;;;;4912440;29;20464;-79
2023/04/06 13:16:59;;;;;;;2.50;2.30;;;22.10;1.00;;;;;;4914857;29;20536;-80
2023/04/06 13:19:27;;;;;;;4.33;2.90;;;23.60;1.00;;;;;;4908013;29;20552;-79
2023/04/06 13:21:54;;;;;;;3.43;2.60;;;24.90;1.00;;;;;;4914035;29;20469;-79
2023/04/06 13:24:22;;;;;;;6.10;3.60;;;25.50;1.00;;;;;;4906537;29;20602;-79
2023/04/06 13:26:50;;;;;;;2.67;2.47;;;27.00;1.00;;;;;;4909779;28;20999;-78
2023/04/06 13:29:20;;;;;;;2.93;2.60;;;27.20;1.00;;;;;;4907212;29;20465;-78
2023/04/06 13:31:47;;;;;;;2.50;2.30;;;26.40;1.00;;;;;;4910495;28;20611;-78
2023/04/06 13:34:16;;;;;;;4.80;4.40;;;25.60;1.00;;;;;;4911640;29;20495;-79
2023/04/06 13:36:43;;;;;;;3.40;3.10;;;24.00;1.00;;;;;;4909531;29;20486;-77